sensor_id;sensor_type;location;lat;lon;timestamp;temperature;humidity
11762;DHT22;5938;47.098;15.474;2022-11-03T00:01:15;12.30;99.90
11762;DHT22;5938;47.098;15.474;2022-11-03T00:05:19;12.30;99.90
11762;DHT22;5938;47.098;15.474;2022-11-03T00:09:46;12.40;99.90
11762;DHT22;5938;47.098;15.474;2022-11-03T00:13:49;12.50;99.90
11762;DHT22;5938;47.098;15.474;2022-11-03T00:17:53;12.50;99.90
11762;DHT22;5938;47.098;15.474;2022-11-03T00:21:56;12.50;99.90
11762;DHT22;5938;47.098;15.474;2022-11-03T00:26:06;12.50;99.90
11762;DHT22;5938;47.098;15.474;2022-11-03T00:30:11;12.50;99.90
11762;DHT22;5938;47.098;15.474;2022-11-03T00:34:14;12.50;99.90
11762;DHT22;5938;47.098;15.474;2022-11-03T00:38:17;12.50;99.90
11762;DHT22;5938;47.098;15.474;2022-11-03T00:42:22;12.60;99.90
11762;DHT22;5938;47.098;15.474;2022-11-03T00:46:26;12.70;99.90
11762;DHT22;5938;47.098;15.474;2022-11-03T00:50:32;12.60;99.90
11762;DHT22;5938;47.098;15.474;2022-11-03T00:54:36;12.60;99.90
11762;DHT22;5938;47.098;15.474;2022-11-03T00:58:41;12.50;99.90
11762;DHT22;5938;47.098;15.474;2022-11-03T01:02:44;12.60;99.90
11762;DHT22;5938;47.098;15.474;2022-11-03T01:06:49;12.50;99.90
11762;DHT22;5938;47.098;15.474;2022-11-03T01:10:52;12.50;99.90
11762;DHT22;5938;47.098;15.474;2022-11-03T01:15:14;12.50;99.90
11762;DHT22;5938;47.098;15.474;2022-11-03T01:19:18;12.50;99.90
11762;DHT22;5938;47.098;15.474;2022-11-03T01:23:21;12.50;99.90
11762;DHT22;5938;47.098;15.474;2022-11-03T01:27:25;12.50;99.90
11762;DHT22;5938;47.098;15.474;2022-11-03T01:31:29;12.50;99.90
11762;DHT22;5938;47.098;15.474;2022-11-03T01:35:34;12.50;99.90
11762;DHT22;5938;47.098;15.474;2022-11-03T01:39:37;12.70;99.90
11762;DHT22;5938;47.098;15.474;2022-11-03T01:43:41;12.60;99.90
11762;DHT22;5938;47.098;15.474;2022-11-03T01:47:45;12.70;99.90
11762;DHT22;5938;47.098;15.474;2022-11-03T01:51:52;12.70;99.90
11762;DHT22;5938;47.098;15.474;2022-11-03T01:55:57;12.60;99.90
11762;DHT22;5938;47.098;15.474;2022-11-03T02:00:01;12.60;99.90
11762;DHT22;5938;47.098;15.474;2022-11-03T02:04:11;12.70;99.90
11762;DHT22;5938;47.098;15.474;2022-11-03T02:08:18;12.60;99.90
11762;DHT22;5938;47.098;15.474;2022-11-03T02:12:23;12.70;99.90
11762;DHT22;5938;47.098;15.474;2022-11-03T02:16:27;12.60;99.90
11762;DHT22;5938;47.098;15.474;2022-11-03T02:20:34;12.50;99.90
11762;DHT22;5938;47.098;15.474;2022-11-03T02:24:44;12.50;99.90
11762;DHT22;5938;47.098;15.474;2022-11-03T02:28:56;12.40;99.90
11762;DHT22;5938;47.098;15.474;2022-11-03T02:33:05;12.50;99.90
11762;DHT22;5938;47.098;15.474;2022-11-03T02:37:15;12.50;99.90
11762;DHT22;5938;47.098;15.474;2022-11-03T02:41:20;12.50;99.90
11762;DHT22;5938;47.098;15.474;2022-11-03T02:45:25;12.50;99.90
11762;DHT22;5938;47.098;15.474;2022-11-03T02:49:30;12.50;99.90
11762;DHT22;5938;47.098;15.474;2022-11-03T02:53:36;12.50;99.90
11762;DHT22;5938;47.098;15.474;2022-11-03T02:57:46;12.50;99.90
11762;DHT22;5938;47.098;15.474;2022-11-03T03:01:58;12.60;99.90
11762;DHT22;5938;47.098;15.474;2022-11-03T03:06:07;12.60;99.90
11762;DHT22;5938;47.098;15.474;2022-11-03T03:10:13;12.60;99.90
11762;DHT22;5938;47.098;15.474;2022-11-03T03:14:22;12.50;99.90
11762;DHT22;5938;47.098;15.474;2022-11-03T03:18:37;12.50;99.90
11762;DHT22;5938;47.098;15.474;2022-11-03T03:22:45;12.40;99.90
11762;DHT22;5938;47.098;15.474;2022-11-03T03:26:50;12.40;99.90
11762;DHT22;5938;47.098;15.474;2022-11-03T03:30:56;12.30;99.90
11762;DHT22;5938;47.098;15.474;2022-11-03T03:35:04;12.20;99.90
11762;DHT22;5938;47.098;15.474;2022-11-03T03:39:09;12.20;99.90
11762;DHT22;5938;47.098;15.474;2022-11-03T03:43:14;12.10;99.90
11762;DHT22;5938;47.098;15.474;2022-11-03T03:47:21;12.10;99.90
11762;DHT22;5938;47.098;15.474;2022-11-03T03:51:28;12.00;99.90
11762;DHT22;5938;47.098;15.474;2022-11-03T03:55:35;12.00;99.90
11762;DHT22;5938;47.098;15.474;2022-11-03T03:59:39;11.90;99.90
11762;DHT22;5938;47.098;15.474;2022-11-03T04:03:42;11.80;99.90
11762;DHT22;5938;47.098;15.474;2022-11-03T04:07:46;11.80;99.90
11762;DHT22;5938;47.098;15.474;2022-11-03T04:11:50;11.80;99.90
11762;DHT22;5938;47.098;15.474;2022-11-03T04:16:11;11.80;99.90
11762;DHT22;5938;47.098;15.474;2022-11-03T04:20:32;11.80;99.90
11762;DHT22;5938;47.098;15.474;2022-11-03T04:24:56;11.70;99.90
11762;DHT22;5938;47.098;15.474;2022-11-03T04:29:00;11.70;99.90
11762;DHT22;5938;47.098;15.474;2022-11-03T04:33:04;11.60;99.90
11762;DHT22;5938;47.098;15.474;2022-11-03T04:37:14;11.60;99.90
11762;DHT22;5938;47.098;15.474;2022-11-03T04:41:22;11.50;99.90
11762;DHT22;5938;47.098;15.474;2022-11-03T04:45:29;11.50;99.90
11762;DHT22;5938;47.098;15.474;2022-11-03T04:49:33;11.50;99.90
11762;DHT22;5938;47.098;15.474;2022-11-03T04:53:36;11.50;99.90
11762;DHT22;5938;47.098;15.474;2022-11-03T04:57:41;11.50;99.90
11762;DHT22;5938;47.098;15.474;2022-11-03T05:01:45;11.50;99.90
11762;DHT22;5938;47.098;15.474;2022-11-03T05:05:49;11.50;99.90
11762;DHT22;5938;47.098;15.474;2022-11-03T05:09:52;11.50;99.90
11762;DHT22;5938;47.098;15.474;2022-11-03T05:14:00;11.40;99.90
11762;DHT22;5938;47.098;15.474;2022-11-03T05:18:14;11.40;99.90
11762;DHT22;5938;47.098;15.474;2022-11-03T05:22:21;11.40;99.90
11762;DHT22;5938;47.098;15.474;2022-11-03T05:26:27;11.40;99.90
11762;DHT22;5938;47.098;15.474;2022-11-03T05:30:33;11.30;99.90
11762;DHT22;5938;47.098;15.474;2022-11-03T05:34:39;11.30;99.90
11762;DHT22;5938;47.098;15.474;2022-11-03T05:38:44;11.30;99.90
11762;DHT22;5938;47.098;15.474;2022-11-03T05:42:50;11.30;99.90
11762;DHT22;5938;47.098;15.474;2022-11-03T05:46:57;11.20;99.90
11762;DHT22;5938;47.098;15.474;2022-11-03T05:51:14;11.20;99.90
11762;DHT22;5938;47.098;15.474;2022-11-03T05:55:26;11.10;99.90
11762;DHT22;5938;47.098;15.474;2022-11-03T05:59:32;11.10;99.90
11762;DHT22;5938;47.098;15.474;2022-11-03T06:03:37;11.10;99.90
11762;DHT22;5938;47.098;15.474;2022-11-03T06:07:40;11.00;99.90
11762;DHT22;5938;47.098;15.474;2022-11-03T06:11:44;11.00;99.90
11762;DHT22;5938;47.098;15.474;2022-11-03T06:15:57;10.90;99.90
11762;DHT22;5938;47.098;15.474;2022-11-03T06:20:11;10.90;99.90
11762;DHT22;5938;47.098;15.474;2022-11-03T06:24:20;10.90;99.90
11762;DHT22;5938;47.098;15.474;2022-11-03T06:28:25;11.10;99.90
11762;DHT22;5938;47.098;15.474;2022-11-03T06:32:32;11.10;99.90
11762;DHT22;5938;47.098;15.474;2022-11-03T06:36:37;11.20;99.90
11762;DHT22;5938;47.098;15.474;2022-11-03T06:40:40;11.30;99.90
11762;DHT22;5938;47.098;15.474;2022-11-03T06:44:46;11.30;99.90
11762;DHT22;5938;47.098;15.474;2022-11-03T06:48:50;11.40;99.90
11762;DHT22;5938;47.098;15.474;2022-11-03T06:52:57;11.50;99.90
11762;DHT22;5938;47.098;15.474;2022-11-03T06:57:00;11.60;99.90
11762;DHT22;5938;47.098;15.474;2022-11-03T07:01:11;11.60;99.90
11762;DHT22;5938;47.098;15.474;2022-11-03T07:05:22;11.80;99.90
11762;DHT22;5938;47.098;15.474;2022-11-03T07:09:27;11.80;99.90
11762;DHT22;5938;47.098;15.474;2022-11-03T07:13:32;12.00;99.90
11762;DHT22;5938;47.098;15.474;2022-11-03T07:17:36;12.20;99.90
11762;DHT22;5938;47.098;15.474;2022-11-03T07:21:44;12.20;99.90
11762;DHT22;5938;47.098;15.474;2022-11-03T07:25:52;12.20;99.90
11762;DHT22;5938;47.098;15.474;2022-11-03T07:29:57;12.40;99.90
11762;DHT22;5938;47.098;15.474;2022-11-03T07:34:01;12.30;99.90
11762;DHT22;5938;47.098;15.474;2022-11-03T07:38:10;12.30;99.90
11762;DHT22;5938;47.098;15.474;2022-11-03T07:42:18;12.40;99.90
11762;DHT22;5938;47.098;15.474;2022-11-03T07:46:22;12.40;99.90
11762;DHT22;5938;47.098;15.474;2022-11-03T07:50:26;12.70;99.90
11762;DHT22;5938;47.098;15.474;2022-11-03T07:54:32;12.70;99.90
11762;DHT22;5938;47.098;15.474;2022-11-03T07:58:38;12.90;99.90
11762;DHT22;5938;47.098;15.474;2022-11-03T08:02:47;13.10;99.90
11762;DHT22;5938;47.098;15.474;2022-11-03T08:06:53;13.60;99.90
11762;DHT22;5938;47.098;15.474;2022-11-03T08:10:56;13.70;99.90
11762;DHT22;5938;47.098;15.474;2022-11-03T08:15:01;14.00;99.90
11762;DHT22;5938;47.098;15.474;2022-11-03T08:19:05;14.50;99.90
11762;DHT22;5938;47.098;15.474;2022-11-03T08:23:08;15.00;99.90
11762;DHT22;5938;47.098;15.474;2022-11-03T08:27:26;14.60;99.90
11762;DHT22;5938;47.098;15.474;2022-11-03T08:31:31;14.80;99.90
11762;DHT22;5938;47.098;15.474;2022-11-03T08:35:34;15.00;99.90
11762;DHT22;5938;47.098;15.474;2022-11-03T08:39:38;14.90;99.90
11762;DHT22;5938;47.098;15.474;2022-11-03T08:43:41;15.00;99.90
11762;DHT22;5938;47.098;15.474;2022-11-03T08:47:46;15.50;99.90
11762;DHT22;5938;47.098;15.474;2022-11-03T08:51:49;15.60;99.30
11762;DHT22;5938;47.098;15.474;2022-11-03T08:55:53;15.80;99.90
11762;DHT22;5938;47.098;15.474;2022-11-03T08:59:56;15.70;98.90
11762;DHT22;5938;47.098;15.474;2022-11-03T09:04:01;15.70;98.60
11762;DHT22;5938;47.098;15.474;2022-11-03T09:08:05;15.40;99.90
11762;DHT22;5938;47.098;15.474;2022-11-03T09:12:28;15.00;99.20
11762;DHT22;5938;47.098;15.474;2022-11-03T09:16:32;15.30;99.00
11762;DHT22;5938;47.098;15.474;2022-11-03T09:20:37;15.30;98.20
11762;DHT22;5938;47.098;15.474;2022-11-03T09:24:40;15.40;99.80
11762;DHT22;5938;47.098;15.474;2022-11-03T09:28:43;15.50;99.90
11762;DHT22;5938;47.098;15.474;2022-11-03T09:32:47;15.10;99.90
11762;DHT22;5938;47.098;15.474;2022-11-03T09:36:51;15.30;99.90
11762;DHT22;5938;47.098;15.474;2022-11-03T09:40:56;15.50;99.70
11762;DHT22;5938;47.098;15.474;2022-11-03T09:45:00;15.50;99.20
11762;DHT22;5938;47.098;15.474;2022-11-03T09:49:04;15.30;99.90
11762;DHT22;5938;47.098;15.474;2022-11-03T09:53:10;15.40;99.90
11762;DHT22;5938;47.098;15.474;2022-11-03T09:57:15;14.80;99.90
11762;DHT22;5938;47.098;15.474;2022-11-03T10:01:18;14.70;99.90
11762;DHT22;5938;47.098;15.474;2022-11-03T10:05:24;15.10;99.80
11762;DHT22;5938;47.098;15.474;2022-11-03T10:09:29;15.30;99.40
11762;DHT22;5938;47.098;15.474;2022-11-03T10:13:35;15.10;99.90
11762;DHT22;5938;47.098;15.474;2022-11-03T10:17:39;15.40;99.90
11762;DHT22;5938;47.098;15.474;2022-11-03T10:21:43;15.60;99.00
11762;DHT22;5938;47.098;15.474;2022-11-03T10:25:48;16.10;97.50
11762;DHT22;5938;47.098;15.474;2022-11-03T10:30:06;16.50;97.20
11762;DHT22;5938;47.098;15.474;2022-11-03T10:34:24;18.50;95.50
11762;DHT22;5938;47.098;15.474;2022-11-03T10:38:29;18.30;94.60
11762;DHT22;5938;47.098;15.474;2022-11-03T10:42:34;17.90;94.40
11762;DHT22;5938;47.098;15.474;2022-11-03T10:46:38;18.10;94.50
11762;DHT22;5938;47.098;15.474;2022-11-03T10:50:57;18.30;94.60
11762;DHT22;5938;47.098;15.474;2022-11-03T10:55:00;18.70;93.20
11762;DHT22;5938;47.098;15.474;2022-11-03T10:59:08;18.50;93.80
11762;DHT22;5938;47.098;15.474;2022-11-03T11:03:14;18.40;94.50
11762;DHT22;5938;47.098;15.474;2022-11-03T11:07:24;17.80;94.40
11762;DHT22;5938;47.098;15.474;2022-11-03T11:11:29;16.90;94.40
11762;DHT22;5938;47.098;15.474;2022-11-03T11:15:39;16.80;95.60
11762;DHT22;5938;47.098;15.474;2022-11-03T11:20:17;17.00;95.20
11762;DHT22;5938;47.098;15.474;2022-11-03T11:25:00;16.70;96.50
11762;DHT22;5938;47.098;15.474;2022-11-03T11:33:46;16.00;97.20
11762;DHT22;5938;47.098;15.474;2022-11-03T11:37:49;16.40;96.60
11762;DHT22;5938;47.098;15.474;2022-11-03T11:42:10;16.30;97.00
11762;DHT22;5938;47.098;15.474;2022-11-03T11:46:38;17.00;96.20
11762;DHT22;5938;47.098;15.474;2022-11-03T11:50:46;16.30;96.30
11762;DHT22;5938;47.098;15.474;2022-11-03T11:54:50;16.60;96.40
11762;DHT22;5938;47.098;15.474;2022-11-03T11:58:53;16.60;96.50
11762;DHT22;5938;47.098;15.474;2022-11-03T12:02:58;16.70;97.30
11762;DHT22;5938;47.098;15.474;2022-11-03T12:07:03;16.30;98.10
11762;DHT22;5938;47.098;15.474;2022-11-03T12:11:08;16.50;97.70
11762;DHT22;5938;47.098;15.474;2022-11-03T12:15:47;16.60;97.10
11762;DHT22;5938;47.098;15.474;2022-11-03T12:19:52;16.20;98.10
11762;DHT22;5938;47.098;15.474;2022-11-03T12:23:57;16.10;98.50
11762;DHT22;5938;47.098;15.474;2022-11-03T12:28:00;15.70;99.00
11762;DHT22;5938;47.098;15.474;2022-11-03T12:32:04;15.20;99.90
11762;DHT22;5938;47.098;15.474;2022-11-03T12:36:16;15.40;99.90
11762;DHT22;5938;47.098;15.474;2022-11-03T12:40:20;15.20;99.90
11762;DHT22;5938;47.098;15.474;2022-11-03T12:44:24;15.10;99.90
11762;DHT22;5938;47.098;15.474;2022-11-03T12:48:28;15.10;99.90
11762;DHT22;5938;47.098;15.474;2022-11-03T12:52:32;15.10;99.90
11762;DHT22;5938;47.098;15.474;2022-11-03T12:56:36;15.00;99.90
11762;DHT22;5938;47.098;15.474;2022-11-03T13:00:40;15.10;99.90
11762;DHT22;5938;47.098;15.474;2022-11-03T13:04:52;15.30;99.90
11762;DHT22;5938;47.098;15.474;2022-11-03T13:08:56;15.10;99.90
11762;DHT22;5938;47.098;15.474;2022-11-03T13:13:01;15.20;99.90
11762;DHT22;5938;47.098;15.474;2022-11-03T13:17:05;14.90;99.90
11762;DHT22;5938;47.098;15.474;2022-11-03T13:21:08;14.80;99.90
11762;DHT22;5938;47.098;15.474;2022-11-03T13:25:12;14.70;99.90
11762;DHT22;5938;47.098;15.474;2022-11-03T13:29:17;15.00;99.90
11762;DHT22;5938;47.098;15.474;2022-11-03T13:33:20;15.20;99.90
11762;DHT22;5938;47.098;15.474;2022-11-03T13:37:24;15.10;99.90
11762;DHT22;5938;47.098;15.474;2022-11-03T13:41:27;15.10;99.90
11762;DHT22;5938;47.098;15.474;2022-11-03T13:45:32;15.10;99.90
11762;DHT22;5938;47.098;15.474;2022-11-03T13:49:35;15.00;99.90
11762;DHT22;5938;47.098;15.474;2022-11-03T13:53:59;14.80;99.90
11762;DHT22;5938;47.098;15.474;2022-11-03T13:58:22;14.70;99.90
11762;DHT22;5938;47.098;15.474;2022-11-03T14:02:47;14.70;99.90
11762;DHT22;5938;47.098;15.474;2022-11-03T14:07:12;14.80;99.90
11762;DHT22;5938;47.098;15.474;2022-11-03T14:11:15;14.80;99.90
11762;DHT22;5938;47.098;15.474;2022-11-03T14:15:35;14.80;99.90
11762;DHT22;5938;47.098;15.474;2022-11-03T14:19:40;14.50;99.90
11762;DHT22;5938;47.098;15.474;2022-11-03T14:23:53;14.70;99.90
11762;DHT22;5938;47.098;15.474;2022-11-03T14:27:59;14.60;99.90
11762;DHT22;5938;47.098;15.474;2022-11-03T14:32:03;14.40;99.90
11762;DHT22;5938;47.098;15.474;2022-11-03T14:36:08;14.30;99.90
11762;DHT22;5938;47.098;15.474;2022-11-03T14:40:11;14.40;99.90
11762;DHT22;5938;47.098;15.474;2022-11-03T14:44:37;14.60;99.90
11762;DHT22;5938;47.098;15.474;2022-11-03T14:48:40;14.40;99.90
11762;DHT22;5938;47.098;15.474;2022-11-03T14:52:45;14.30;99.90
11762;DHT22;5938;47.098;15.474;2022-11-03T14:56:48;14.20;99.90
11762;DHT22;5938;47.098;15.474;2022-11-03T15:00:52;14.10;99.90
11762;DHT22;5938;47.098;15.474;2022-11-03T15:04:55;14.10;99.90
11762;DHT22;5938;47.098;15.474;2022-11-03T15:09:00;14.20;99.90
11762;DHT22;5938;47.098;15.474;2022-11-03T15:13:04;14.20;99.90
11762;DHT22;5938;47.098;15.474;2022-11-03T15:17:08;14.20;99.90
11762;DHT22;5938;47.098;15.474;2022-11-03T15:21:11;14.10;99.90
11762;DHT22;5938;47.098;15.474;2022-11-03T15:25:16;13.90;99.90
11762;DHT22;5938;47.098;15.474;2022-11-03T15:29:29;13.80;99.90
11762;DHT22;5938;47.098;15.474;2022-11-03T15:33:32;13.80;99.90
11762;DHT22;5938;47.098;15.474;2022-11-03T15:37:36;13.70;99.90
11762;DHT22;5938;47.098;15.474;2022-11-03T15:41:40;13.60;99.90
11762;DHT22;5938;47.098;15.474;2022-11-03T15:45:44;13.60;99.90
11762;DHT22;5938;47.098;15.474;2022-11-03T15:49:47;13.50;99.90
11762;DHT22;5938;47.098;15.474;2022-11-03T15:53:51;13.50;99.90
11762;DHT22;5938;47.098;15.474;2022-11-03T15:58:01;13.40;99.90
11762;DHT22;5938;47.098;15.474;2022-11-03T16:02:04;13.30;99.90
11762;DHT22;5938;47.098;15.474;2022-11-03T16:06:28;13.20;99.90
11762;DHT22;5938;47.098;15.474;2022-11-03T16:10:51;13.10;99.90
11762;DHT22;5938;47.098;15.474;2022-11-03T16:15:00;12.90;99.90
11762;DHT22;5938;47.098;15.474;2022-11-03T16:19:04;12.80;99.90
11762;DHT22;5938;47.098;15.474;2022-11-03T16:23:08;12.90;99.90
11762;DHT22;5938;47.098;15.474;2022-11-03T16:27:11;13.00;99.90
11762;DHT22;5938;47.098;15.474;2022-11-03T16:31:16;13.00;99.90
11762;DHT22;5938;47.098;15.474;2022-11-03T16:35:20;13.00;99.90
11762;DHT22;5938;47.098;15.474;2022-11-03T16:39:24;13.00;99.90
11762;DHT22;5938;47.098;15.474;2022-11-03T16:43:27;13.00;99.90
11762;DHT22;5938;47.098;15.474;2022-11-03T16:47:32;13.00;99.90
11762;DHT22;5938;47.098;15.474;2022-11-03T16:51:36;13.00;99.90
11762;DHT22;5938;47.098;15.474;2022-11-03T16:55:40;13.00;99.90
11762;DHT22;5938;47.098;15.474;2022-11-03T16:59:43;12.90;99.90
11762;DHT22;5938;47.098;15.474;2022-11-03T17:03:48;12.90;99.90
11762;DHT22;5938;47.098;15.474;2022-11-03T17:07:53;12.80;99.90
11762;DHT22;5938;47.098;15.474;2022-11-03T17:11:57;12.60;99.90
11762;DHT22;5938;47.098;15.474;2022-11-03T17:16:00;12.40;99.90
11762;DHT22;5938;47.098;15.474;2022-11-03T17:20:06;12.30;99.90
11762;DHT22;5938;47.098;15.474;2022-11-03T17:24:11;12.20;99.90
11762;DHT22;5938;47.098;15.474;2022-11-03T17:28:14;12.10;99.90
11762;DHT22;5938;47.098;15.474;2022-11-03T17:32:22;11.90;99.90
11762;DHT22;5938;47.098;15.474;2022-11-03T17:36:29;11.80;99.90
11762;DHT22;5938;47.098;15.474;2022-11-03T17:40:32;11.60;99.90
11762;DHT22;5938;47.098;15.474;2022-11-03T17:44:36;11.60;99.90
11762;DHT22;5938;47.098;15.474;2022-11-03T17:48:40;11.70;99.90
11762;DHT22;5938;47.098;15.474;2022-11-03T17:52:47;11.90;99.90
11762;DHT22;5938;47.098;15.474;2022-11-03T17:56:52;11.80;99.90
11762;DHT22;5938;47.098;15.474;2022-11-03T18:00:56;11.70;99.90
11762;DHT22;5938;47.098;15.474;2022-11-03T18:05:13;11.40;99.90
11762;DHT22;5938;47.098;15.474;2022-11-03T18:09:24;11.20;99.90
11762;DHT22;5938;47.098;15.474;2022-11-03T18:13:30;11.00;99.90
11762;DHT22;5938;47.098;15.474;2022-11-03T18:17:36;10.80;99.90
11762;DHT22;5938;47.098;15.474;2022-11-03T18:21:40;10.80;99.90
11762;DHT22;5938;47.098;15.474;2022-11-03T18:25:47;10.80;99.90
11762;DHT22;5938;47.098;15.474;2022-11-03T18:29:57;10.80;99.90
11762;DHT22;5938;47.098;15.474;2022-11-03T18:34:05;10.60;99.90
11762;DHT22;5938;47.098;15.474;2022-11-03T18:38:13;10.50;99.90
11762;DHT22;5938;47.098;15.474;2022-11-03T18:42:19;10.50;99.90
11762;DHT22;5938;47.098;15.474;2022-11-03T18:46:23;10.40;99.90
11762;DHT22;5938;47.098;15.474;2022-11-03T18:50:28;10.30;99.90
11762;DHT22;5938;47.098;15.474;2022-11-03T18:54:34;10.20;99.90
11762;DHT22;5938;47.098;15.474;2022-11-03T18:58:39;10.20;99.90
11762;DHT22;5938;47.098;15.474;2022-11-03T19:02:44;10.20;99.90
11762;DHT22;5938;47.098;15.474;2022-11-03T19:12:15;10.10;99.90
11762;DHT22;5938;47.098;15.474;2022-11-03T19:16:22;10.10;99.90
11762;DHT22;5938;47.098;15.474;2022-11-03T19:20:27;10.10;99.90
11762;DHT22;5938;47.098;15.474;2022-11-03T19:24:41;10.20;99.90
11762;DHT22;5938;47.098;15.474;2022-11-03T19:28:47;10.10;99.90
11762;DHT22;5938;47.098;15.474;2022-11-03T19:32:56;10.10;99.90
11762;DHT22;5938;47.098;15.474;2022-11-03T19:37:04;10.10;99.90
11762;DHT22;5938;47.098;15.474;2022-11-03T19:41:15;10.00;99.90
11762;DHT22;5938;47.098;15.474;2022-11-03T19:45:38;9.90;99.90
11762;DHT22;5938;47.098;15.474;2022-11-03T19:49:45;9.80;99.90
11762;DHT22;5938;47.098;15.474;2022-11-03T19:53:51;9.70;99.90
11762;DHT22;5938;47.098;15.474;2022-11-03T19:57:58;9.70;99.90
11762;DHT22;5938;47.098;15.474;2022-11-03T20:02:04;9.60;99.90
11762;DHT22;5938;47.098;15.474;2022-11-03T20:06:14;9.60;99.90
11762;DHT22;5938;47.098;15.474;2022-11-03T20:10:20;9.60;99.90
11762;DHT22;5938;47.098;15.474;2022-11-03T20:14:26;9.50;99.90
11762;DHT22;5938;47.098;15.474;2022-11-03T20:18:30;9.40;99.90
11762;DHT22;5938;47.098;15.474;2022-11-03T20:22:39;9.40;99.90
11762;DHT22;5938;47.098;15.474;2022-11-03T20:26:45;9.50;99.90
11762;DHT22;5938;47.098;15.474;2022-11-03T20:30:51;9.40;99.90
11762;DHT22;5938;47.098;15.474;2022-11-03T20:34:56;9.40;99.90
11762;DHT22;5938;47.098;15.474;2022-11-03T20:39:03;9.50;99.90
11762;DHT22;5938;47.098;15.474;2022-11-03T20:43:20;9.50;99.90
11762;DHT22;5938;47.098;15.474;2022-11-03T20:47:24;9.40;99.90
11762;DHT22;5938;47.098;15.474;2022-11-03T20:51:31;9.50;99.90
11762;DHT22;5938;47.098;15.474;2022-11-03T20:55:37;9.60;99.90
11762;DHT22;5938;47.098;15.474;2022-11-03T20:59:41;9.60;99.90
11762;DHT22;5938;47.098;15.474;2022-11-03T21:03:45;9.60;99.90
11762;DHT22;5938;47.098;15.474;2022-11-03T21:08:04;9.80;99.90
11762;DHT22;5938;47.098;15.474;2022-11-03T21:12:11;9.70;99.90
11762;DHT22;5938;47.098;15.474;2022-11-03T21:16:16;9.60;99.90
11762;DHT22;5938;47.098;15.474;2022-11-03T21:20:37;9.50;99.90
11762;DHT22;5938;47.098;15.474;2022-11-03T21:24:41;9.60;99.90
11762;DHT22;5938;47.098;15.474;2022-11-03T21:28:47;9.70;99.90
11762;DHT22;5938;47.098;15.474;2022-11-03T21:32:51;9.70;99.90
11762;DHT22;5938;47.098;15.474;2022-11-03T21:36:54;9.90;99.90
11762;DHT22;5938;47.098;15.474;2022-11-03T21:40:58;9.90;99.90
11762;DHT22;5938;47.098;15.474;2022-11-03T21:45:23;9.90;99.90
11762;DHT22;5938;47.098;15.474;2022-11-03T21:49:27;9.80;99.90
11762;DHT22;5938;47.098;15.474;2022-11-03T21:53:46;9.60;99.90
11762;DHT22;5938;47.098;15.474;2022-11-03T21:57:49;9.50;99.90
11762;DHT22;5938;47.098;15.474;2022-11-03T22:01:54;9.40;99.90
11762;DHT22;5938;47.098;15.474;2022-11-03T22:05:58;9.30;99.90
11762;DHT22;5938;47.098;15.474;2022-11-03T22:10:02;9.30;99.90
11762;DHT22;5938;47.098;15.474;2022-11-03T22:14:05;9.20;99.90
11762;DHT22;5938;47.098;15.474;2022-11-03T22:18:10;9.20;99.90
11762;DHT22;5938;47.098;15.474;2022-11-03T22:22:14;9.20;99.90
11762;DHT22;5938;47.098;15.474;2022-11-03T22:26:35;9.10;99.90
11762;DHT22;5938;47.098;15.474;2022-11-03T22:31:03;9.10;99.90
11762;DHT22;5938;47.098;15.474;2022-11-03T22:35:25;9.00;99.90
11762;DHT22;5938;47.098;15.474;2022-11-03T22:39:46;9.00;99.90
11762;DHT22;5938;47.098;15.474;2022-11-03T22:44:06;8.90;99.90
11762;DHT22;5938;47.098;15.474;2022-11-03T22:48:27;9.00;99.90
11762;DHT22;5938;47.098;15.474;2022-11-03T22:52:32;8.90;99.90
11762;DHT22;5938;47.098;15.474;2022-11-03T22:56:36;8.90;99.90
11762;DHT22;5938;47.098;15.474;2022-11-03T23:00:40;8.90;99.90
11762;DHT22;5938;47.098;15.474;2022-11-03T23:04:45;8.90;99.90
11762;DHT22;5938;47.098;15.474;2022-11-03T23:08:50;8.90;99.90
11762;DHT22;5938;47.098;15.474;2022-11-03T23:12:55;8.80;99.90
11762;DHT22;5938;47.098;15.474;2022-11-03T23:16:58;8.80;99.90
11762;DHT22;5938;47.098;15.474;2022-11-03T23:21:01;8.80;99.90
11762;DHT22;5938;47.098;15.474;2022-11-03T23:25:25;8.70;99.90
11762;DHT22;5938;47.098;15.474;2022-11-03T23:29:30;8.60;99.90
11762;DHT22;5938;47.098;15.474;2022-11-03T23:33:33;8.60;99.90
11762;DHT22;5938;47.098;15.474;2022-11-03T23:37:37;8.60;99.90
11762;DHT22;5938;47.098;15.474;2022-11-03T23:41:42;8.50;99.90
11762;DHT22;5938;47.098;15.474;2022-11-03T23:45:46;8.40;99.90
11762;DHT22;5938;47.098;15.474;2022-11-03T23:50:07;8.30;99.90
11762;DHT22;5938;47.098;15.474;2022-11-03T23:54:11;8.30;99.90
11762;DHT22;5938;47.098;15.474;2022-11-03T23:58:16;8.40;99.90
